createdAt,value
2024-04-15T00:01:40.958Z,9.06
2024-04-15T00:04:08.302Z,8.96
2024-04-15T00:06:35.603Z,8.89
2024-04-15T00:09:02.765Z,8.88
2024-04-15T00:11:30.020Z,8.83
2024-04-15T00:13:57.162Z,8.80
2024-04-15T00:16:24.409Z,8.71
2024-04-15T00:18:51.740Z,8.69
2024-04-15T00:21:19.011Z,8.66
2024-04-15T00:23:47.514Z,8.60
2024-04-15T00:26:14.885Z,8.58
2024-04-15T00:28:42.181Z,8.55
2024-04-15T00:31:09.680Z,8.51
2024-04-15T00:33:37.217Z,8.50
2024-04-15T00:36:05.141Z,8.46
2024-04-15T00:38:32.378Z,8.47
2024-04-15T00:40:59.875Z,8.44
2024-04-15T00:43:27.151Z,8.40
2024-04-15T00:45:54.431Z,8.37
2024-04-15T00:48:21.702Z,8.34
2024-04-15T00:50:50.790Z,8.29
2024-04-15T00:53:23.715Z,8.29
2024-04-15T00:55:54.949Z,8.24
2024-04-15T00:58:25.705Z,8.18
2024-04-15T01:00:54.939Z,8.15
2024-04-15T01:03:23.570Z,8.07
2024-04-15T01:05:51.357Z,8.02
2024-04-15T01:08:19.068Z,7.95
2024-04-15T01:10:55.556Z,7.87
2024-04-15T01:13:27.995Z,7.74
2024-04-15T01:16:02.150Z,7.63
2024-04-15T01:18:30.629Z,7.56
2024-04-15T01:20:59.829Z,7.46
2024-04-15T01:23:39.339Z,7.32
2024-04-15T01:26:06.562Z,7.29
2024-04-15T01:28:33.886Z,7.21
2024-04-15T01:31:01.350Z,7.14
2024-04-15T01:33:28.496Z,7.06
2024-04-15T01:35:55.794Z,6.98
2024-04-15T01:38:23.017Z,6.91
2024-04-15T01:40:50.277Z,6.82
2024-04-15T01:43:19.282Z,6.78
2024-04-15T01:45:46.934Z,6.72
2024-04-15T01:48:14.471Z,6.67
2024-04-15T01:50:41.710Z,6.64
2024-04-15T01:53:12.763Z,6.58
2024-04-15T01:55:40.290Z,6.53
2024-04-15T01:58:07.572Z,6.47
2024-04-15T02:00:35.312Z,6.43
2024-04-15T02:03:02.983Z,6.39
2024-04-15T02:05:30.204Z,6.35
2024-04-15T02:07:58.484Z,6.33
2024-04-15T02:10:26.108Z,6.27
2024-04-15T02:12:53.654Z,6.27
2024-04-15T02:15:21.939Z,6.24
2024-04-15T02:17:49.922Z,6.20
2024-04-15T02:20:17.828Z,6.18
2024-04-15T02:22:45.221Z,6.13
2024-04-15T02:25:12.725Z,6.09
2024-04-15T02:27:40.008Z,6.07
2024-04-15T02:30:08.699Z,6.03
2024-04-15T02:32:36.233Z,6.00
2024-04-15T02:35:03.619Z,5.98
2024-04-15T02:37:32.048Z,5.93
2024-04-15T02:39:59.316Z,5.94
2024-04-15T02:42:26.738Z,5.90
2024-04-15T02:44:53.975Z,5.88
2024-04-15T02:47:22.007Z,5.85
2024-04-15T02:49:49.279Z,5.84
2024-04-15T02:52:16.594Z,5.89
2024-04-15T02:54:43.985Z,5.88
2024-04-15T02:57:11.194Z,5.85
2024-04-15T02:59:40.248Z,5.83
2024-04-15T03:02:07.578Z,5.87
2024-04-15T03:04:35.059Z,5.84
2024-04-15T03:07:02.356Z,5.85
2024-04-15T03:09:29.661Z,5.84
2024-04-15T03:11:57.161Z,5.87
2024-04-15T03:14:24.474Z,5.87
2024-04-15T03:16:51.742Z,5.90
2024-04-15T03:19:19.206Z,5.90
2024-04-15T03:21:46.436Z,5.90
2024-04-15T03:24:13.886Z,5.95
2024-04-15T03:26:41.262Z,5.96
2024-04-15T03:29:08.447Z,5.98
2024-04-15T03:31:35.710Z,6.03
2024-04-15T03:34:03.119Z,6.05
2024-04-15T03:36:30.375Z,6.06
2024-04-15T03:38:57.857Z,6.08
2024-04-15T03:41:25.095Z,6.11
2024-04-15T03:43:53.298Z,6.12
2024-04-15T03:46:20.599Z,6.16
2024-04-15T03:48:48.009Z,6.17
2024-04-15T03:51:15.437Z,6.22
2024-04-15T03:53:42.664Z,6.21
2024-04-15T03:56:09.994Z,6.25
2024-04-15T03:58:37.139Z,6.26
2024-04-15T04:01:04.687Z,6.29
2024-04-15T04:03:32.030Z,6.33
2024-04-15T04:06:10.048Z,6.34
2024-04-15T04:08:41.094Z,6.43
2024-04-15T04:11:09.325Z,6.47
2024-04-15T04:13:39.553Z,6.49
2024-04-15T04:16:07.227Z,6.53
2024-04-15T04:18:34.716Z,6.53
2024-04-15T04:21:02.232Z,6.59
2024-04-15T04:23:29.494Z,6.60
2024-04-15T04:25:56.770Z,6.62
2024-04-15T04:28:24.034Z,6.65
2024-04-15T04:30:51.365Z,6.68
2024-04-15T04:33:18.672Z,6.67
2024-04-15T04:35:46.166Z,6.76
2024-04-15T04:38:13.435Z,6.78
2024-04-15T04:40:40.669Z,6.82
2024-04-15T04:43:08.068Z,6.84
2024-04-15T04:45:35.325Z,6.89
2024-04-15T04:48:02.889Z,6.94
2024-04-15T04:50:30.113Z,6.95
2024-04-15T04:52:57.772Z,6.99
2024-04-15T04:55:25.176Z,7.05
2024-04-15T04:57:52.578Z,7.07
2024-04-15T05:00:19.946Z,7.04
2024-04-15T05:02:50.415Z,7.11
2024-04-15T05:05:17.827Z,7.14
2024-04-15T05:07:45.226Z,7.12
2024-04-15T05:10:16.181Z,7.13
2024-04-15T05:12:45.103Z,7.17
2024-04-15T05:15:15.430Z,7.20
2024-04-15T05:17:43.486Z,7.21
2024-04-15T05:20:13.967Z,7.13
2024-04-15T05:22:45.570Z,7.14
2024-04-15T05:25:13.308Z,7.19
2024-04-15T05:27:41.058Z,7.24
2024-04-15T05:30:09.195Z,7.32
2024-04-15T05:32:36.830Z,7.42
2024-04-15T05:35:05.041Z,7.47
2024-04-15T05:37:32.724Z,7.47
2024-04-15T05:40:00.659Z,7.63
2024-04-15T05:42:28.238Z,7.70
2024-04-15T05:44:55.861Z,7.83
2024-04-15T05:47:23.205Z,7.92
2024-04-15T05:49:50.854Z,7.95
2024-04-15T05:52:19.190Z,7.93
2024-04-15T05:54:46.789Z,7.81
2024-04-15T05:57:14.277Z,7.85
2024-04-15T05:59:41.839Z,7.73
2024-04-15T06:02:09.414Z,7.82
2024-04-15T06:04:37.009Z,7.77
2024-04-15T06:07:04.673Z,7.96
2024-04-15T06:09:33.556Z,8.05
2024-04-15T06:12:01.178Z,8.21
2024-04-15T06:14:28.873Z,8.31
2024-04-15T06:16:56.361Z,8.41
2024-04-15T06:19:24.306Z,8.54
2024-04-15T06:21:52.413Z,8.66
2024-04-15T06:24:20.370Z,8.81
2024-04-15T06:26:49.005Z,8.89
2024-04-15T06:29:16.231Z,8.94
2024-04-15T06:31:43.625Z,8.92
2024-04-15T06:34:11.378Z,8.98
2024-04-15T06:36:38.948Z,8.94
2024-04-15T06:39:06.360Z,9.16
2024-04-15T06:41:33.644Z,9.26
2024-04-15T06:44:01.233Z,9.36
2024-04-15T06:46:28.904Z,9.35
2024-04-15T06:48:56.489Z,9.27
2024-04-15T06:51:23.956Z,9.26
2024-04-15T06:53:52.412Z,9.29
2024-04-15T06:56:22.802Z,9.39
2024-04-15T06:58:50.043Z,9.58
2024-04-15T07:01:17.610Z,9.68
2024-04-15T07:03:45.972Z,9.68
2024-04-15T07:06:16.268Z,9.70
2024-04-15T07:08:44.857Z,9.72
2024-04-15T07:11:12.598Z,9.75
2024-04-15T07:13:39.779Z,9.84
2024-04-15T07:16:07.797Z,9.91
2024-04-15T07:18:35.194Z,9.86
2024-04-15T07:21:02.934Z,9.76
2024-04-15T07:23:30.508Z,9.67
2024-04-15T07:26:01.772Z,9.59
2024-04-15T07:28:29.896Z,9.60
2024-04-15T07:30:59.896Z,9.59
2024-04-15T07:33:27.924Z,9.65
2024-04-15T07:36:00.442Z,9.62
2024-04-15T07:38:28.300Z,9.62
2024-04-15T07:41:00.897Z,9.61
2024-04-15T07:43:30.887Z,9.62
2024-04-15T07:45:58.585Z,9.68
2024-04-15T07:48:26.639Z,9.70
2024-04-15T07:50:56.079Z,9.84
2024-04-15T07:53:23.654Z,9.90
2024-04-15T07:55:51.238Z,9.96
2024-04-15T07:58:18.847Z,9.90
2024-04-15T08:00:46.288Z,9.83
2024-04-15T08:03:13.886Z,9.61
2024-04-15T08:05:41.695Z,9.56
2024-04-15T08:08:17.986Z,9.54
2024-04-15T08:11:19.221Z,9.59
2024-04-15T08:13:46.827Z,9.70
2024-04-15T08:16:14.564Z,9.80
2024-04-15T08:18:41.981Z,9.82
2024-04-15T08:21:09.230Z,9.85
2024-04-15T08:23:36.659Z,9.92
2024-04-15T08:26:05.156Z,10.14
2024-04-15T08:28:32.608Z,10.36
2024-04-15T08:31:00.267Z,10.58
2024-04-15T08:33:27.596Z,10.66
2024-04-15T08:35:55.222Z,10.82
2024-04-15T08:38:22.797Z,11.00
2024-04-15T08:40:55.195Z,11.15
2024-04-15T08:43:23.943Z,11.23
2024-04-15T08:45:59.747Z,11.22
2024-04-15T08:48:27.855Z,11.13
2024-04-15T08:50:56.516Z,10.97
2024-04-15T08:53:25.078Z,10.67
2024-04-15T08:55:52.402Z,10.45
2024-04-15T08:58:20.482Z,10.32
2024-04-15T09:00:52.095Z,10.07
2024-04-15T09:03:22.014Z,9.96
2024-04-15T09:05:49.601Z,9.84
2024-04-15T09:08:16.993Z,9.77
2024-04-15T09:10:44.467Z,9.70
2024-04-15T09:13:12.219Z,9.69
2024-04-15T09:15:41.129Z,9.77
2024-04-15T09:18:10.578Z,9.86
2024-04-15T09:20:49.454Z,9.92
2024-04-15T09:23:25.545Z,10.05
2024-04-15T09:25:52.875Z,10.12
2024-04-15T09:28:20.268Z,10.19
2024-04-15T09:30:48.668Z,10.23
2024-04-15T09:33:22.858Z,10.22
2024-04-15T09:35:54.195Z,10.33
2024-04-15T09:38:23.255Z,10.30
2024-04-15T09:40:54.750Z,10.20
2024-04-15T09:43:27.152Z,10.14
2024-04-15T09:45:55.158Z,9.93
2024-04-15T09:48:25.102Z,9.88
2024-04-15T09:51:28.153Z,9.95
2024-04-15T09:57:12.690Z,9.79
2024-04-15T09:59:50.031Z,9.72
2024-04-15T10:02:41.322Z,9.79
2024-04-15T10:05:32.419Z,9.60
2024-04-15T10:08:09.864Z,9.55
2024-04-15T10:13:43.928Z,9.36
2024-04-15T10:23:12.857Z,9.51
2024-04-15T10:26:24.964Z,9.44
2024-04-15T10:36:22.761Z,9.90
2024-04-15T10:38:56.458Z,9.99
2024-04-15T11:05:52.341Z,9.90
2024-04-15T11:25:58.364Z,9.20
2024-04-15T11:29:22.018Z,9.32
2024-04-15T11:48:34.667Z,8.97
2024-04-15T11:51:25.269Z,8.93
2024-04-15T11:54:15.640Z,9.09
2024-04-15T11:56:46.682Z,9.16
2024-04-15T11:59:16.798Z,9.19
2024-04-15T12:01:50.777Z,9.27
2024-04-15T12:04:21.786Z,9.23
2024-04-15T12:07:13.442Z,9.26
2024-04-15T12:09:42.913Z,9.15
2024-04-15T12:24:39.182Z,9.15
2024-04-15T12:30:22.608Z,9.13
2024-04-15T12:36:13.048Z,8.50
2024-04-15T12:38:37.529Z,8.13
2024-04-15T12:41:15.194Z,7.80
2024-04-15T12:44:09.701Z,7.63
2024-04-15T12:47:05.401Z,7.63
2024-04-15T12:49:34.010Z,7.57
2024-04-15T12:52:32.603Z,7.54
2024-04-15T12:55:01.334Z,7.32
2024-04-15T13:06:15.232Z,7.05
2024-04-15T13:08:42.851Z,7.10
2024-04-15T13:11:31.381Z,7.39
2024-04-15T13:13:58.851Z,7.66
2024-04-15T13:16:26.505Z,8.20
2024-04-15T13:26:54.965Z,9.54
2024-04-15T13:31:20.099Z,10.67
2024-04-15T13:34:17.652Z,12.22
2024-04-15T13:36:49.898Z,13.39
2024-04-15T13:39:21.781Z,14.72
2024-04-15T13:42:14.192Z,15.53
2024-04-15T13:44:44.932Z,15.24
2024-04-15T13:47:14.962Z,14.38
2024-04-15T13:58:24.675Z,12.84
2024-04-15T14:01:11.575Z,12.24
2024-04-15T14:03:42.211Z,11.76
2024-04-15T14:06:11.963Z,12.44
2024-04-15T14:08:40.384Z,13.14
2024-04-15T14:11:09.778Z,13.25
2024-04-15T14:13:37.463Z,13.00
2024-04-15T14:16:05.661Z,12.82
2024-04-15T14:18:35.253Z,12.71
2024-04-15T14:21:06.455Z,12.32
2024-04-15T14:23:34.710Z,12.07
2024-04-15T14:26:03.732Z,11.72
2024-04-15T14:28:31.218Z,11.52
2024-04-15T14:31:00.030Z,11.79
2024-04-15T14:33:30.282Z,12.36
2024-04-15T14:35:58.336Z,12.41
2024-04-15T14:38:27.754Z,12.25
2024-04-15T14:40:58.192Z,11.84
2024-04-15T14:43:26.269Z,11.49
2024-04-15T14:45:59.574Z,11.18
2024-04-15T14:48:27.620Z,10.76
2024-04-15T14:51:00.880Z,10.48
2024-04-15T14:53:30.701Z,9.89
2024-04-15T14:55:58.356Z,9.02
2024-04-15T14:58:25.912Z,8.36
2024-04-15T15:00:53.723Z,7.91
2024-04-15T15:03:21.284Z,7.64
2024-04-15T15:05:52.538Z,7.46
2024-04-15T15:08:21.888Z,7.31
2024-04-15T15:10:49.541Z,7.22
2024-04-15T15:13:17.049Z,7.12
2024-04-15T15:15:47.862Z,7.00
2024-04-15T15:18:16.236Z,6.76
2024-04-15T15:20:43.834Z,6.45
2024-04-15T15:23:11.413Z,6.12
2024-04-15T15:25:41.906Z,5.85
2024-04-15T15:28:11.635Z,5.75
2024-04-15T15:30:39.534Z,5.56
2024-04-15T15:33:07.290Z,5.54
2024-04-15T15:35:34.760Z,5.39
2024-04-15T15:38:02.778Z,5.34
2024-04-15T15:40:31.159Z,5.38
2024-04-15T15:42:58.713Z,5.43
2024-04-15T15:45:27.445Z,5.31
2024-04-15T15:47:56.986Z,5.41
2024-04-15T15:50:24.334Z,5.46
2024-04-15T15:52:51.642Z,5.51
2024-04-15T15:55:20.788Z,5.53
2024-04-15T15:57:48.455Z,5.62
2024-04-15T16:00:17.020Z,5.67
2024-04-15T16:02:50.457Z,5.60
2024-04-15T16:05:18.944Z,5.66
2024-04-15T16:07:46.685Z,5.79
2024-04-15T16:10:16.883Z,5.82
2024-04-15T16:12:45.838Z,5.84
2024-04-15T16:15:13.487Z,5.83
2024-04-15T16:17:41.680Z,5.90
2024-04-15T16:20:12.159Z,5.84
2024-04-15T16:22:39.653Z,5.86
2024-04-15T16:25:11.296Z,5.76
2024-04-15T16:27:38.969Z,5.70
2024-04-15T16:30:17.189Z,5.56
2024-04-15T16:32:46.962Z,5.23
2024-04-15T16:35:15.691Z,4.94
2024-04-15T16:37:43.227Z,4.71
2024-04-15T16:40:11.340Z,4.61
2024-04-15T16:42:38.937Z,4.52
2024-04-15T16:45:07.123Z,4.55
2024-04-15T16:47:35.199Z,4.62
2024-04-15T16:50:09.079Z,4.64
2024-04-15T16:52:37.242Z,4.51
2024-04-15T16:55:06.339Z,4.64
2024-04-15T16:57:34.138Z,4.51
2024-04-15T17:00:07.398Z,4.59
2024-04-15T17:02:35.118Z,4.60
2024-04-15T17:05:03.297Z,4.68
2024-04-15T17:07:31.169Z,4.82
2024-04-15T17:09:59.413Z,4.88
2024-04-15T17:12:27.446Z,4.81
2024-04-15T17:14:56.560Z,4.86
2024-04-15T17:17:29.330Z,4.75
2024-04-15T17:19:57.026Z,4.70
2024-04-15T17:22:25.284Z,4.68
2024-04-15T17:24:54.261Z,4.64
2024-04-15T17:27:26.434Z,4.63
2024-04-15T17:29:55.914Z,4.61
2024-04-15T17:32:30.506Z,4.79
2024-04-15T17:34:58.854Z,4.78
2024-04-15T17:37:30.234Z,4.79
2024-04-15T17:40:03.431Z,4.71
2024-04-15T17:42:41.465Z,4.85
2024-04-15T17:45:18.915Z,4.77
2024-04-15T17:47:47.493Z,4.88
2024-04-15T17:50:15.073Z,4.85
2024-04-15T17:52:42.616Z,4.87
2024-04-15T17:55:11.665Z,4.97
2024-04-15T17:57:39.735Z,4.97
2024-04-15T18:00:07.807Z,4.93
2024-04-15T18:02:35.710Z,4.95
2024-04-15T18:05:06.454Z,4.95
2024-04-15T18:07:35.685Z,4.88
2024-04-15T18:10:04.135Z,4.82
2024-04-15T18:12:32.413Z,4.76
2024-04-15T18:15:03.417Z,4.75
2024-04-15T18:17:38.948Z,4.57
2024-04-15T18:20:08.698Z,4.70
2024-04-15T18:22:36.557Z,4.75
2024-04-15T18:25:04.442Z,4.73
2024-04-15T18:27:32.098Z,4.72
2024-04-15T18:29:59.762Z,4.80
2024-04-15T18:32:27.337Z,4.88
2024-04-15T18:34:54.774Z,4.91
2024-04-15T18:37:22.428Z,4.92
2024-04-15T18:39:50.020Z,4.93
2024-04-15T18:42:18.133Z,4.95
2024-04-15T18:44:46.055Z,4.91
2024-04-15T18:47:13.498Z,4.97
2024-04-15T18:49:40.928Z,4.97
2024-04-15T18:52:08.605Z,4.99
2024-04-15T18:54:36.159Z,4.91
2024-04-15T18:57:03.973Z,4.98
2024-04-15T18:59:31.511Z,4.98
2024-04-15T19:02:01.241Z,5.03
2024-04-15T19:04:28.928Z,5.04
2024-04-15T19:06:56.612Z,5.02
2024-04-15T19:09:24.136Z,5.06
2024-04-15T19:11:51.551Z,5.13
2024-04-15T19:14:21.168Z,5.07
2024-04-15T19:16:49.051Z,5.16
2024-04-15T19:19:16.529Z,5.13
2024-04-15T19:21:44.198Z,5.14
2024-04-15T19:24:12.885Z,5.11
2024-04-15T19:26:41.635Z,5.13
2024-04-15T19:29:09.455Z,5.15
2024-04-15T19:31:37.216Z,5.22
2024-04-15T19:34:04.715Z,5.27
2024-04-15T19:36:32.400Z,5.26
2024-04-15T19:38:59.698Z,5.26
2024-04-15T19:41:31.273Z,5.24
2024-04-15T19:43:58.961Z,5.28
2024-04-15T19:46:26.763Z,5.31
2024-04-15T19:48:56.680Z,5.29
2024-04-15T19:51:24.315Z,5.24
2024-04-15T19:53:52.550Z,5.28
2024-04-15T19:56:20.048Z,5.19
2024-04-15T19:58:47.364Z,5.35
2024-04-15T20:01:15.733Z,5.21
2024-04-15T20:03:43.474Z,5.35
2024-04-15T20:06:11.566Z,5.37
2024-04-15T20:08:38.980Z,5.32
2024-04-15T20:11:06.473Z,5.18
2024-04-15T20:13:34.179Z,5.32
2024-04-15T20:16:01.634Z,5.28
2024-04-15T20:18:37.436Z,5.28
2024-04-15T20:21:05.681Z,5.23
2024-04-15T20:23:35.681Z,5.18
2024-04-15T20:26:03.457Z,5.21
2024-04-15T20:28:30.977Z,5.16
2024-04-15T20:30:58.580Z,5.26
2024-04-15T20:33:26.252Z,5.18
2024-04-15T20:35:53.689Z,5.31
2024-04-15T20:38:21.227Z,5.35
2024-04-15T20:40:48.967Z,5.39
2024-04-15T20:43:16.225Z,5.38
2024-04-15T20:45:49.506Z,5.44
2024-04-15T20:48:18.835Z,5.43
2024-04-15T20:50:46.755Z,5.34
2024-04-15T20:53:14.210Z,5.42
2024-04-15T20:55:41.929Z,5.41
2024-04-15T20:58:10.392Z,5.41
2024-04-15T21:00:38.074Z,5.24
2024-04-15T21:03:06.143Z,5.35
2024-04-15T21:05:33.773Z,5.31
2024-04-15T21:08:01.132Z,5.26
2024-04-15T21:10:31.042Z,5.19
2024-04-15T21:13:01.329Z,5.37
2024-04-15T21:15:28.978Z,5.34
2024-04-15T21:17:56.462Z,5.25
2024-04-15T21:20:24.640Z,5.40
2024-04-15T21:22:52.336Z,5.29
2024-04-15T21:25:19.996Z,5.36
2024-04-15T21:27:47.458Z,5.46
2024-04-15T21:30:14.988Z,5.45
2024-04-15T21:32:42.522Z,5.44
2024-04-15T21:35:09.995Z,5.39
2024-04-15T21:37:37.303Z,5.45
2024-04-15T21:40:05.124Z,5.45
2024-04-15T21:42:32.979Z,5.44
2024-04-15T21:45:02.303Z,5.42
2024-04-15T21:47:32.165Z,5.43
2024-04-15T21:49:59.911Z,5.36
2024-04-15T21:52:27.652Z,5.39
2024-04-15T21:54:55.221Z,5.39
2024-04-15T21:57:26.366Z,5.42
2024-04-15T21:59:54.045Z,5.39
2024-04-15T22:02:21.451Z,5.45
2024-04-15T22:04:59.564Z,5.47
2024-04-15T22:07:32.925Z,5.51
2024-04-15T22:10:01.293Z,5.51
2024-04-15T22:12:31.255Z,5.48
2024-04-15T22:14:58.721Z,5.41
2024-04-15T22:17:29.160Z,5.45
2024-04-15T22:19:56.999Z,5.38
2024-04-15T22:22:24.570Z,5.45
2024-04-15T22:24:52.364Z,5.56
2024-04-15T22:27:19.853Z,5.50
2024-04-15T22:29:47.376Z,5.54
2024-04-15T22:32:14.990Z,5.49
2024-04-15T22:34:43.032Z,5.50
2024-04-15T22:37:14.237Z,5.36
2024-04-15T22:39:42.003Z,5.55
2024-04-15T22:42:09.775Z,5.44
2024-04-15T22:44:37.294Z,5.49
2024-04-15T22:47:05.301Z,5.52
2024-04-15T22:49:32.720Z,5.53
2024-04-15T22:52:01.157Z,5.46
2024-04-15T22:54:31.080Z,5.38
2024-04-15T22:57:01.205Z,5.51
2024-04-15T22:59:28.919Z,5.49
2024-04-15T23:01:56.817Z,5.46
2024-04-15T23:04:24.561Z,5.60
2024-04-15T23:06:52.051Z,5.46
2024-04-15T23:09:20.317Z,5.49
2024-04-15T23:11:50.441Z,5.63
2024-04-15T23:14:23.082Z,5.60
2024-04-15T23:16:56.234Z,5.54
2024-04-15T23:19:36.677Z,5.60
2024-04-15T23:22:04.749Z,5.49
2024-04-15T23:24:33.833Z,5.60
2024-04-15T23:27:05.397Z,5.59
2024-04-15T23:29:35.869Z,5.74
2024-04-15T23:32:05.455Z,5.65
2024-04-15T23:34:39.808Z,5.61
2024-04-15T23:37:07.505Z,5.62
2024-04-15T23:39:34.706Z,5.75
2024-04-15T23:42:02.084Z,5.75
2024-04-15T23:44:34.108Z,5.69
2024-04-15T23:47:19.985Z,5.65
2024-04-15T23:50:06.454Z,5.67
2024-04-15T23:52:52.412Z,5.67
2024-04-15T23:55:39.797Z,5.63
2024-04-15T23:58:10.511Z,5.76
